createdAt,value
2022-10-04T00:00:11.019Z,40.80
2022-10-04T00:02:41.300Z,41.03
2022-10-04T00:05:14.038Z,39.72
2022-10-04T00:07:47.593Z,40.28
2022-10-04T00:10:22.062Z,40.35
2022-10-04T00:12:58.695Z,41.40
2022-10-04T00:15:31.981Z,40.70
2022-10-04T00:18:19.511Z,41.05
2022-10-04T00:21:05.577Z,40.05
2022-10-04T00:23:45.754Z,42.05
2022-10-04T00:27:10.909Z,42.20
2022-10-04T00:29:42.103Z,42.22
2022-10-04T00:32:28.001Z,41.55
2022-10-04T00:34:56.963Z,42.15
2022-10-04T00:37:26.116Z,40.80
2022-10-04T00:40:05.761Z,41.33
2022-10-04T00:42:49.420Z,44.10
2022-10-04T00:45:33.739Z,42.58
2022-10-04T00:48:30.342Z,41.03
2022-10-04T00:51:04.806Z,41.28
2022-10-04T00:53:57.808Z,43.22
2022-10-04T00:56:32.580Z,43.85
2022-10-04T00:59:21.009Z,43.15
2022-10-04T01:01:53.938Z,42.08
2022-10-04T01:04:40.760Z,41.72
2022-10-04T01:07:10.914Z,41.10
2022-10-04T01:09:47.233Z,42.60
2022-10-04T01:12:23.336Z,43.50
2022-10-04T01:15:01.027Z,43.65
2022-10-04T01:17:28.950Z,42.30
2022-10-04T01:19:58.672Z,43.05
2022-10-04T01:22:51.398Z,43.53
2022-10-04T01:25:45.015Z,43.30
2022-10-04T01:28:14.716Z,41.30
2022-10-04T01:30:43.745Z,43.10
2022-10-04T01:33:13.690Z,43.85
2022-10-04T01:35:42.130Z,43.72
2022-10-04T01:38:12.944Z,44.80
2022-10-04T01:40:47.256Z,44.15
2022-10-04T01:43:19.639Z,46.45
2022-10-04T01:45:55.937Z,45.53
2022-10-04T01:48:28.347Z,45.38
2022-10-04T01:51:01.180Z,45.42
2022-10-04T01:53:32.280Z,45.28
2022-10-04T01:56:09.008Z,45.35
2022-10-04T01:58:43.316Z,44.85
2022-10-04T02:01:15.018Z,45.33
2022-10-04T02:03:46.577Z,44.72
2022-10-04T02:06:15.998Z,44.42
2022-10-04T02:08:50.437Z,44.85
2022-10-04T02:11:20.375Z,44.10
2022-10-04T02:13:52.463Z,45.15
2022-10-04T02:16:22.687Z,47.10
2022-10-04T02:18:52.715Z,45.38
2022-10-04T02:21:21.544Z,46.72
2022-10-04T02:23:53.420Z,46.13
2022-10-04T02:26:21.684Z,47.55
2022-10-04T02:28:50.442Z,46.20
2022-10-04T02:31:40.365Z,45.55
2022-10-04T02:34:09.510Z,45.22
2022-10-04T02:36:39.514Z,46.63
2022-10-04T02:39:15.431Z,45.00
2022-10-04T02:41:48.666Z,45.58
2022-10-04T02:44:21.096Z,46.50
2022-10-04T02:46:54.908Z,46.80
2022-10-04T02:49:31.997Z,46.95
2022-10-04T02:52:06.173Z,47.05
2022-10-04T02:54:41.062Z,46.85
2022-10-04T02:57:15.808Z,47.47
2022-10-04T02:59:43.675Z,46.17
2022-10-04T03:02:29.701Z,46.65
2022-10-04T03:05:02.371Z,45.67
2022-10-04T03:07:33.637Z,45.25
2022-10-04T03:10:04.320Z,44.45
2022-10-04T03:12:32.323Z,45.78
2022-10-04T03:15:00.641Z,46.22
2022-10-04T03:17:29.736Z,45.50
2022-10-04T03:19:58.421Z,47.10
2022-10-04T03:22:26.404Z,46.67
2022-10-04T03:24:58.401Z,45.08
2022-10-04T03:27:32.443Z,44.63
2022-10-04T03:30:01.964Z,45.15
2022-10-04T03:32:32.278Z,44.70
2022-10-04T03:35:03.775Z,45.33
2022-10-04T03:37:36.130Z,46.45
2022-10-04T03:40:05.806Z,44.72
2022-10-04T03:42:37.417Z,42.80
2022-10-04T03:45:12.347Z,44.13
2022-10-04T03:47:45.188Z,43.67
2022-10-04T03:50:17.797Z,44.00
2022-10-04T03:52:51.219Z,44.70
2022-10-04T03:55:20.349Z,44.53
2022-10-04T03:57:49.823Z,43.70
2022-10-04T04:00:19.217Z,44.92
2022-10-04T04:02:51.579Z,43.58
2022-10-04T04:05:24.670Z,45.03
2022-10-04T04:08:01.957Z,44.90
2022-10-04T04:10:32.732Z,42.83
2022-10-04T04:13:07.968Z,42.50
2022-10-04T04:15:36.218Z,43.53
2022-10-04T04:18:06.334Z,41.80
2022-10-04T04:20:36.869Z,44.33
2022-10-04T04:23:13.789Z,42.42
2022-10-04T04:25:44.370Z,42.47
2022-10-04T04:28:26.063Z,43.55
2022-10-04T04:31:00.124Z,43.22
2022-10-04T04:33:34.337Z,42.13
2022-10-04T04:36:07.774Z,41.67
2022-10-04T04:38:56.379Z,43.53
2022-10-04T04:41:25.160Z,43.40
2022-10-04T04:43:54.566Z,41.95
2022-10-04T04:46:27.721Z,42.50
2022-10-04T04:49:02.926Z,41.78
2022-10-04T04:51:33.248Z,41.80
2022-10-04T04:54:07.274Z,41.08
2022-10-04T04:56:36.076Z,43.65
2022-10-04T04:59:09.128Z,41.97
2022-10-04T05:01:43.093Z,43.00
2022-10-04T05:04:19.815Z,44.60
2022-10-04T05:06:50.041Z,43.28
2022-10-04T05:09:25.238Z,44.20
2022-10-04T05:11:58.830Z,42.47
2022-10-04T05:14:31.721Z,44.38
2022-10-04T05:17:00.049Z,42.97
2022-10-04T05:19:31.201Z,43.25
2022-10-04T05:22:02.185Z,43.65
2022-10-04T05:24:32.905Z,44.67
2022-10-04T05:27:03.812Z,44.15
2022-10-04T05:29:36.358Z,42.72
2022-10-04T05:32:13.763Z,43.83
2022-10-04T05:34:45.376Z,41.90
2022-10-04T05:37:27.921Z,43.08
2022-10-04T05:40:06.551Z,41.67
2022-10-04T05:42:41.458Z,41.22
2022-10-04T05:45:20.188Z,42.55
2022-10-04T05:47:50.772Z,42.25
2022-10-04T05:50:21.134Z,41.90
2022-10-04T05:52:52.368Z,43.15
2022-10-04T05:55:28.915Z,42.80
2022-10-04T05:58:32.846Z,43.88
2022-10-04T06:01:16.374Z,41.38
2022-10-04T06:03:58.517Z,41.65
2022-10-04T06:06:34.640Z,41.67
2022-10-04T06:09:12.594Z,42.90
2022-10-04T06:11:52.581Z,42.70
2022-10-04T06:14:39.432Z,40.67
2022-10-04T06:17:25.956Z,41.45
2022-10-04T06:20:40.412Z,40.65
2022-10-04T06:23:14.633Z,42.00
2022-10-04T06:25:48.901Z,42.00
2022-10-04T06:28:21.547Z,43.33
2022-10-04T06:31:18.533Z,42.63
2022-10-04T06:34:05.471Z,42.30
2022-10-04T06:36:47.382Z,40.47
2022-10-04T06:39:43.899Z,41.65
2022-10-04T06:42:40.213Z,41.60
2022-10-04T06:45:23.108Z,40.08
2022-10-04T06:48:09.321Z,42.67
2022-10-04T06:50:46.292Z,41.10
2022-10-04T06:53:28.750Z,41.70
2022-10-04T06:56:14.203Z,40.35
2022-10-04T06:59:00.155Z,40.15
2022-10-04T07:01:31.131Z,40.13
2022-10-04T07:04:07.349Z,41.08
2022-10-04T07:06:43.593Z,39.15
2022-10-04T07:09:21.448Z,40.78
2022-10-04T07:11:56.854Z,39.88
2022-10-04T07:14:30.989Z,40.30
2022-10-04T07:17:03.238Z,40.55
2022-10-04T07:19:37.201Z,41.42
2022-10-04T07:22:15.895Z,40.72
2022-10-04T07:24:53.770Z,42.22
2022-10-04T07:27:26.726Z,40.05
2022-10-04T07:29:57.470Z,40.10
2022-10-04T07:32:29.392Z,39.70
2022-10-04T07:35:03.272Z,39.38
2022-10-04T07:37:37.840Z,39.95
2022-10-04T07:40:11.181Z,39.13
2022-10-04T07:42:47.892Z,40.10
2022-10-04T07:45:24.921Z,39.63
2022-10-04T07:48:05.342Z,40.13
2022-10-04T07:50:43.103Z,40.45
2022-10-04T07:53:17.690Z,39.05
2022-10-04T07:55:56.373Z,40.25
2022-10-04T07:58:46.134Z,41.58
2022-10-04T08:01:24.926Z,41.47
2022-10-04T08:04:04.137Z,41.75
2022-10-04T08:06:37.184Z,41.75
2022-10-04T08:09:37.950Z,40.65
2022-10-04T08:12:13.744Z,38.78
2022-10-04T08:14:54.932Z,40.55
2022-10-04T08:17:43.021Z,40.75
2022-10-04T08:20:27.942Z,40.65
2022-10-04T08:23:08.775Z,40.30
2022-10-04T08:25:47.118Z,40.25
2022-10-04T08:28:44.011Z,39.50
2022-10-04T08:31:27.471Z,37.45
2022-10-04T08:34:08.923Z,38.92
2022-10-04T08:36:49.404Z,38.00
2022-10-04T08:39:40.342Z,39.40
2022-10-04T08:42:41.878Z,39.20
2022-10-04T08:45:54.140Z,39.13
2022-10-04T08:48:47.789Z,38.88
2022-10-04T08:51:43.349Z,38.70
2022-10-04T08:54:44.105Z,37.45
2022-10-04T08:57:43.372Z,36.95
2022-10-04T09:00:17.825Z,37.42
2022-10-04T09:03:31.695Z,37.97
2022-10-04T09:06:08.940Z,35.92
2022-10-04T09:09:26.371Z,34.40
2022-10-04T09:12:20.224Z,34.35
2022-10-04T09:15:21.500Z,33.83
2022-10-04T09:17:55.986Z,34.83
2022-10-04T09:20:38.806Z,34.75
2022-10-04T09:23:23.562Z,35.53
2022-10-04T09:26:06.495Z,34.72
2022-10-04T09:29:22.470Z,34.55
2022-10-04T09:32:12.081Z,34.35
2022-10-04T09:34:58.865Z,34.55
2022-10-04T09:37:39.636Z,32.53
2022-10-04T09:40:47.194Z,33.03
2022-10-04T09:43:50.846Z,33.70
2022-10-04T09:46:32.841Z,33.58
2022-10-04T09:49:13.588Z,34.22
2022-10-04T09:52:15.505Z,34.28
2022-10-04T09:54:56.827Z,32.67
2022-10-04T09:57:39.186Z,34.25
2022-10-04T10:00:22.187Z,32.38
2022-10-04T10:03:31.111Z,32.00
2022-10-04T10:06:28.124Z,31.95
2022-10-04T10:09:13.989Z,33.05
2022-10-04T10:12:11.471Z,32.40
2022-10-04T10:15:08.870Z,32.75
2022-10-04T10:17:44.748Z,34.53
2022-10-04T10:20:32.952Z,34.15
2022-10-04T10:23:26.600Z,33.08
2022-10-04T10:26:24.103Z,33.40
2022-10-04T10:29:33.291Z,31.83
2022-10-04T10:32:16.247Z,33.20
2022-10-04T10:35:14.447Z,32.88
2022-10-04T10:37:55.726Z,34.58
2022-10-04T10:40:48.447Z,34.60
2022-10-04T10:43:41.647Z,33.90
2022-10-04T10:46:23.567Z,35.67
2022-10-04T10:49:11.730Z,33.88
2022-10-04T10:52:06.054Z,30.67
2022-10-04T10:54:56.485Z,30.38
2022-10-04T10:57:44.460Z,32.13
2022-10-04T11:00:21.192Z,32.40
2022-10-04T11:03:23.953Z,33.55
2022-10-04T11:06:16.760Z,33.45
2022-10-04T11:09:17.378Z,34.65
2022-10-04T11:12:05.645Z,33.35
2022-10-04T11:15:06.138Z,36.17
2022-10-04T11:18:17.002Z,35.45
2022-10-04T11:21:18.477Z,33.33
2022-10-04T11:24:21.941Z,30.85
2022-10-04T11:27:10.893Z,25.25
2022-10-04T11:30:03.881Z,18.90
2022-10-04T11:33:23.023Z,20.30
2022-10-04T11:36:32.602Z,21.08
2022-10-04T11:39:31.056Z,22.67
2022-10-04T11:42:12.175Z,22.10
2022-10-04T11:45:19.429Z,24.00
2022-10-04T11:48:01.361Z,19.90
2022-10-04T11:50:43.456Z,18.85
2022-10-04T11:54:03.538Z,20.30
2022-10-04T11:56:48.378Z,18.83
2022-10-04T11:59:39.660Z,19.08
2022-10-04T12:02:50.272Z,18.92
2022-10-04T12:05:51.125Z,18.33
2022-10-04T12:08:32.704Z,14.52
2022-10-04T12:12:09.693Z,15.15
2022-10-04T12:15:13.824Z,15.35
2022-10-04T12:18:21.604Z,14.15
2022-10-04T12:21:31.672Z,12.73
2022-10-04T12:24:09.697Z,14.30
2022-10-04T12:27:00.193Z,14.35
2022-10-04T12:29:58.584Z,15.73
2022-10-04T12:32:33.608Z,13.65
2022-10-04T12:35:16.962Z,13.05
2022-10-04T12:38:08.451Z,11.98
2022-10-04T12:40:42.959Z,12.95
2022-10-04T12:43:17.673Z,12.63
2022-10-04T12:45:56.972Z,14.25
2022-10-04T12:48:37.737Z,12.73
2022-10-04T12:51:21.138Z,11.38
2022-10-04T12:53:57.952Z,11.88
2022-10-04T12:56:45.861Z,13.18
2022-10-04T12:59:35.627Z,12.73
2022-10-04T13:02:21.669Z,11.95
2022-10-04T13:04:53.787Z,12.40
2022-10-04T13:07:51.847Z,11.10
2022-10-04T13:10:40.065Z,11.65
2022-10-04T13:13:41.083Z,12.18
2022-10-04T13:19:20.255Z,12.73
2022-10-04T13:22:11.510Z,12.20
2022-10-04T13:24:56.932Z,10.88
2022-10-04T13:27:32.540Z,11.63
2022-10-04T13:30:05.634Z,9.88
2022-10-04T13:32:43.755Z,8.88
2022-10-04T13:35:21.332Z,9.50
2022-10-04T13:38:04.772Z,9.02
2022-10-04T13:40:59.153Z,8.93
2022-10-04T13:43:45.120Z,8.65
2022-10-04T13:46:25.037Z,9.27
2022-10-04T13:49:04.375Z,9.75
2022-10-04T13:51:49.391Z,9.88
2022-10-04T13:54:46.469Z,9.32
2022-10-04T13:57:23.348Z,9.77
2022-10-04T13:59:56.710Z,9.57
2022-10-04T14:03:05.819Z,8.90
2022-10-04T14:06:04.567Z,8.90
2022-10-04T14:08:52.436Z,9.18
2022-10-04T14:11:43.727Z,9.85
2022-10-04T14:14:42.989Z,9.50
2022-10-04T14:17:43.028Z,9.43
2022-10-04T14:20:47.238Z,9.40
2022-10-04T14:23:48.331Z,10.20
2022-10-04T14:26:44.114Z,9.77
2022-10-04T14:29:38.057Z,10.50
2022-10-04T14:33:00.054Z,9.77
2022-10-04T14:35:31.370Z,9.98
2022-10-04T14:38:43.164Z,9.55
2022-10-04T14:41:52.888Z,9.85
2022-10-04T14:44:51.028Z,11.00
2022-10-04T14:47:47.812Z,10.60
2022-10-04T14:50:30.920Z,10.95
2022-10-04T14:53:16.100Z,10.82
2022-10-04T14:56:14.838Z,11.00
2022-10-04T14:58:57.804Z,11.45
2022-10-04T15:01:29.322Z,10.25
2022-10-04T15:04:11.741Z,11.65
2022-10-04T15:06:48.585Z,11.02
2022-10-04T15:09:42.580Z,11.35
2022-10-04T15:13:12.099Z,12.02
2022-10-04T15:15:54.316Z,11.65
2022-10-04T15:18:45.776Z,12.23
2022-10-04T15:21:33.792Z,12.50
2022-10-04T15:24:25.589Z,12.77
2022-10-04T15:27:14.753Z,14.00
2022-10-04T15:29:52.661Z,13.88
2022-10-04T15:32:35.414Z,14.02
2022-10-04T15:35:21.819Z,14.15
2022-10-04T15:37:57.932Z,13.75
2022-10-04T15:40:40.866Z,13.27
2022-10-04T15:43:24.161Z,14.02
2022-10-04T15:46:28.717Z,14.82
2022-10-04T15:49:14.096Z,12.68
2022-10-04T15:52:03.623Z,13.15
2022-10-04T15:55:02.070Z,14.25
2022-10-04T15:57:40.489Z,13.68
2022-10-04T16:00:15.650Z,15.00
2022-10-04T16:03:11.025Z,14.57
2022-10-04T16:05:43.485Z,16.27
2022-10-04T16:08:35.963Z,15.70
2022-10-04T16:11:27.038Z,15.85
2022-10-04T16:14:20.093Z,18.38
2022-10-04T16:17:25.204Z,18.05
2022-10-04T16:20:13.753Z,19.55
2022-10-04T16:22:42.279Z,20.05
2022-10-04T16:25:38.866Z,20.17
2022-10-04T16:28:13.921Z,20.83
2022-10-04T16:30:49.354Z,20.77
2022-10-04T16:33:37.438Z,21.33
2022-10-04T16:36:11.918Z,22.30
2022-10-04T16:39:05.013Z,22.00
2022-10-04T16:41:41.027Z,22.55
2022-10-04T16:44:28.792Z,20.40
2022-10-04T16:47:02.427Z,23.20
2022-10-04T16:49:38.836Z,24.00
2022-10-04T16:52:32.574Z,26.15
2022-10-04T16:55:28.499Z,25.40
2022-10-04T16:58:37.575Z,27.80
2022-10-04T17:01:43.261Z,28.65
2022-10-04T17:04:27.646Z,25.73
2022-10-04T17:07:00.921Z,26.15
2022-10-04T17:09:32.035Z,27.30
2022-10-04T17:12:19.148Z,26.67
2022-10-04T17:15:21.048Z,26.25
2022-10-04T17:17:58.462Z,26.85
2022-10-04T17:20:45.717Z,28.05
2022-10-04T17:23:31.926Z,29.45
2022-10-04T17:26:10.242Z,30.30
2022-10-04T17:28:52.351Z,31.67
2022-10-04T17:31:28.003Z,29.63
2022-10-04T17:34:06.976Z,29.90
2022-10-04T17:36:39.682Z,30.10
2022-10-04T17:39:32.413Z,30.65
2022-10-04T17:42:16.502Z,29.90
2022-10-04T17:45:12.202Z,29.35
2022-10-04T17:48:02.898Z,30.67
2022-10-04T17:50:57.610Z,30.10
2022-10-04T17:53:53.492Z,29.85
2022-10-04T17:56:29.729Z,29.80
2022-10-04T17:59:00.043Z,31.60
2022-10-04T18:01:34.028Z,31.17
2022-10-04T18:04:10.060Z,31.77
2022-10-04T18:06:43.790Z,31.63
2022-10-04T18:09:26.220Z,32.03
2022-10-04T18:11:56.997Z,33.60
2022-10-04T18:14:56.785Z,34.30
2022-10-04T18:17:33.045Z,34.55
2022-10-04T18:20:27.156Z,34.58
2022-10-04T18:23:01.365Z,36.08
2022-10-04T18:25:33.772Z,36.17
2022-10-04T18:28:06.657Z,37.15
2022-10-04T18:30:35.762Z,36.38
2022-10-04T18:33:14.511Z,37.70
2022-10-04T18:35:52.643Z,37.30
2022-10-04T18:38:25.692Z,36.33
2022-10-04T18:41:01.532Z,38.40
2022-10-04T18:43:32.357Z,38.03
2022-10-04T18:46:07.017Z,37.08
2022-10-04T18:48:41.467Z,37.92
2022-10-04T18:51:27.404Z,39.40
2022-10-04T18:54:10.018Z,39.83
2022-10-04T18:56:49.901Z,38.78
2022-10-04T18:59:48.772Z,40.03
2022-10-04T19:02:25.747Z,37.75
2022-10-04T19:05:02.988Z,33.75
2022-10-04T19:07:38.891Z,33.38
2022-10-04T19:10:20.561Z,33.70
2022-10-04T19:13:03.003Z,33.25
2022-10-04T19:15:44.863Z,32.50
2022-10-04T19:18:41.405Z,30.75
2022-10-04T19:21:17.886Z,31.88
2022-10-04T19:24:11.031Z,27.23
2022-10-04T19:26:44.624Z,26.05
2022-10-04T19:29:32.481Z,26.00
2022-10-04T19:32:06.631Z,25.92
2022-10-04T19:34:45.549Z,25.65
2022-10-04T19:37:31.685Z,25.48
2022-10-04T19:40:10.768Z,25.63
2022-10-04T19:42:50.134Z,25.02
2022-10-04T19:45:33.540Z,25.90
2022-10-04T19:48:07.067Z,26.05
2022-10-04T19:50:40.589Z,28.10
2022-10-04T19:53:16.414Z,24.80
2022-10-04T19:55:54.030Z,22.75
2022-10-04T19:58:32.076Z,22.73
2022-10-04T20:01:02.164Z,20.98
2022-10-04T20:03:30.332Z,20.60
2022-10-04T20:05:58.708Z,18.38
2022-10-04T20:08:50.382Z,17.35
2022-10-04T20:11:21.164Z,17.95
2022-10-04T20:14:29.705Z,17.42
2022-10-04T20:17:06.826Z,15.75
2022-10-04T20:19:39.532Z,17.67
2022-10-04T20:22:40.395Z,18.00
2022-10-04T20:25:10.215Z,18.20
2022-10-04T20:28:00.600Z,20.17
2022-10-04T20:30:50.446Z,18.95
2022-10-04T20:33:47.079Z,20.65
2022-10-04T20:36:53.276Z,20.00
2022-10-04T20:40:00.724Z,19.83
2022-10-04T20:42:38.739Z,19.63
2022-10-04T20:45:27.887Z,19.92
2022-10-04T20:47:58.420Z,21.27
2022-10-04T20:50:32.300Z,22.20
2022-10-04T20:53:04.528Z,22.88
2022-10-04T20:55:34.163Z,23.50
2022-10-04T20:58:04.152Z,20.27
2022-10-04T21:00:34.828Z,18.25
2022-10-04T21:03:17.935Z,19.00
2022-10-04T21:05:52.507Z,18.83
2022-10-04T21:08:27.664Z,19.25
2022-10-04T21:11:09.152Z,20.15
2022-10-04T21:13:43.085Z,17.10
2022-10-04T21:16:11.332Z,18.20
2022-10-04T21:18:39.492Z,19.35
2022-10-04T21:21:08.647Z,20.48
2022-10-04T21:23:38.077Z,21.02
2022-10-04T21:26:22.274Z,21.35
2022-10-04T21:28:54.071Z,21.65
2022-10-04T21:31:22.135Z,21.05
2022-10-04T21:33:50.295Z,22.48
2022-10-04T21:36:18.336Z,22.88
2022-10-04T21:38:47.733Z,22.45
2022-10-04T21:41:15.764Z,23.42
2022-10-04T21:43:43.772Z,26.50
2022-10-04T21:46:14.377Z,25.80
2022-10-04T21:48:45.907Z,24.77
2022-10-04T21:51:14.041Z,26.38
2022-10-04T21:53:41.967Z,26.40
2022-10-04T21:56:11.365Z,27.67
2022-10-04T21:58:39.354Z,27.63
2022-10-04T22:01:08.152Z,27.65
2022-10-04T22:03:36.184Z,27.80
2022-10-04T22:06:04.117Z,28.10
2022-10-04T22:08:32.409Z,28.52
2022-10-04T22:11:00.427Z,30.33
2022-10-04T22:13:29.897Z,30.27
2022-10-04T22:15:57.849Z,31.08
2022-10-04T22:18:26.200Z,30.67
2022-10-04T22:20:54.184Z,31.63
2022-10-04T22:23:24.747Z,33.70
2022-10-04T22:25:53.618Z,32.83
2022-10-04T22:28:24.561Z,34.13
2022-10-04T22:30:55.817Z,34.17
2022-10-04T22:33:34.849Z,32.60
2022-10-04T22:36:15.481Z,33.90
2022-10-04T22:38:46.858Z,33.10
2022-10-04T22:41:17.625Z,33.55
2022-10-04T22:43:46.380Z,34.00
2022-10-04T22:46:18.575Z,34.78
2022-10-04T22:48:49.122Z,33.47
2022-10-04T22:51:17.315Z,33.20
2022-10-04T22:53:47.201Z,34.83
2022-10-04T22:56:16.042Z,35.38
2022-10-04T22:58:44.062Z,35.65
2022-10-04T23:01:15.085Z,34.70
2022-10-04T23:03:46.831Z,34.50
2022-10-04T23:06:15.394Z,33.70
2022-10-04T23:08:43.812Z,32.22
2022-10-04T23:11:12.736Z,33.65
2022-10-04T23:13:40.655Z,34.97
2022-10-04T23:16:14.948Z,33.85
2022-10-04T23:18:44.426Z,32.78
2022-10-04T23:21:21.733Z,33.85
2022-10-04T23:23:50.661Z,34.22
2022-10-04T23:26:23.739Z,34.60
2022-10-04T23:28:52.127Z,34.22
2022-10-04T23:31:24.747Z,34.65
2022-10-04T23:33:56.550Z,33.50
2022-10-04T23:36:25.182Z,31.42
2022-10-04T23:38:57.734Z,30.90
2022-10-04T23:41:26.486Z,32.13
2022-10-04T23:43:54.742Z,30.75
2022-10-04T23:46:25.024Z,31.55
2022-10-04T23:48:54.536Z,30.80
2022-10-04T23:51:23.007Z,29.15
2022-10-04T23:53:51.460Z,30.67
2022-10-04T23:56:23.078Z,30.10
2022-10-04T23:58:52.256Z,27.38
